Aérodrome :
LOGIN :

S'inscrire | Disclaimer

   EN    FR    IT 

 










Légende :    VFR   VFR Marginal   IFR   IFR Intensif   IFR Très Intensif
Visi : 
Plafond : 
>= 8 km
>= 3000ft
5 à 8 km
1000 à 3000 ft
1500m à 5 km
500 à 1000 ft
800 à 1500m
200 à 500 ft
< 800m
< 200 ft
Symboles :   Orages  Brouillard  Fortes neiges  Fortes précipitations  Vent > 20 kt
SIGMETs :   Divers  Orages  Givrage  Turbulence  Onde Orograph.  Cendres Volcan.







- Altitude de l'aérodrome : 194 ft
- Code IATA : LME
- Voir les cartes d'approche


LFRM - Le Mans

DERNIER METAR :
  • 130500Z AUTO 19004KT 160V220 9999 SCT007 10/09 Q1024

METARs EXPIRÉS :
  • 130430Z AUTO 19003KT 150V220 9999 BKN007 10/09 Q1023
  • 130400Z AUTO 19004KT 160V220 9999 OVC007 10/09 Q1023
  • 130330Z AUTO 18003KT 150V210 9999 OVC007 10/09 Q1023
  • 130300Z AUTO 17004KT 130V210 9999 BKN006 OVC010 11/10 Q1022
  • 130230Z AUTO 21004KT 170V240 9999 OVC007 11/10 Q1022

TAF TAF LFRM
Valide du 12 à 12h jusqu'au 13 à 12h UTC


121100Z 1212/1312 20008KT 9999 SCT009 BKN020
BECMG 1220/1223 BKN008
TEMPO 1304/1309 3000 BR OVC004
BECMG 1309/1312 BKN015
Pas de NOTAMs connus pour ce terrain.



MET'MAP, la Météo Aéronautique d'un coup d'oeil ! - Copyright ORBIFLY Décembre 2007 - Disclaimer

ORBIFLY MET'MAP TEAM :

Programmation & Développement : Alexandra Zaïnal
Conception & Développement : Baudouin d'Aumeries
Co-Programmation & Développement : Marc-Olivier Méhu
Soutien technique & logistique : Manuel Goepfert

Contact : metmap@orbifly.com




SOURCES & CREDITS :

   NOAA